sensor_id;sensor_type;location;lat;lon;timestamp;P1;durP1;ratioP1;P2;durP2;ratioP2
55672;SDS011;41554;45.366;20.400;2023-04-25T00:01:23;11.90;;;9.43;;
55672;SDS011;41554;45.366;20.400;2023-04-25T00:03:49;14.45;;;10.10;;
55672;SDS011;41554;45.366;20.400;2023-04-25T00:06:15;15.82;;;12.07;;
55672;SDS011;41554;45.366;20.400;2023-04-25T00:08:42;23.75;;;12.90;;
55672;SDS011;41554;45.366;20.400;2023-04-25T00:11:09;19.00;;;13.68;;
55672;SDS011;41554;45.366;20.400;2023-04-25T00:13:35;17.17;;;13.57;;
55672;SDS011;41554;45.366;20.400;2023-04-25T00:16:01;13.70;;;11.57;;
55672;SDS011;41554;45.366;20.400;2023-04-25T00:18:27;12.88;;;10.90;;
55672;SDS011;41554;45.366;20.400;2023-04-25T00:20:54;22.33;;;13.10;;
55672;SDS011;41554;45.366;20.400;2023-04-25T00:23:20;20.13;;;12.50;;
55672;SDS011;41554;45.366;20.400;2023-04-25T00:25:47;15.57;;;12.55;;
55672;SDS011;41554;45.366;20.400;2023-04-25T00:28:14;18.52;;;11.95;;
55672;SDS011;41554;45.366;20.400;2023-04-25T00:30:40;15.65;;;11.98;;
55672;SDS011;41554;45.366;20.400;2023-04-25T00:33:06;17.42;;;12.65;;
55672;SDS011;41554;45.366;20.400;2023-04-25T00:35:33;16.17;;;12.07;;
55672;SDS011;41554;45.366;20.400;2023-04-25T00:37:59;15.63;;;11.88;;
55672;SDS011;41554;45.366;20.400;2023-04-25T00:40:26;18.65;;;13.75;;
55672;SDS011;41554;45.366;20.400;2023-04-25T00:42:52;16.00;;;12.13;;
55672;SDS011;41554;45.366;20.400;2023-04-25T00:45:18;14.57;;;12.57;;
55672;SDS011;41554;45.366;20.400;2023-04-25T00:47:45;17.20;;;13.50;;
55672;SDS011;41554;45.366;20.400;2023-04-25T00:50:12;15.50;;;12.20;;
55672;SDS011;41554;45.366;20.400;2023-04-25T00:52:39;17.08;;;14.43;;
55672;SDS011;41554;45.366;20.400;2023-04-25T00:55:06;13.23;;;11.82;;
55672;SDS011;41554;45.366;20.400;2023-04-25T00:57:32;14.68;;;12.60;;
55672;SDS011;41554;45.366;20.400;2023-04-25T00:59:58;18.85;;;15.25;;
55672;SDS011;41554;45.366;20.400;2023-04-25T01:02:24;20.67;;;14.43;;
55672;SDS011;41554;45.366;20.400;2023-04-25T01:04:52;18.20;;;15.10;;
55672;SDS011;41554;45.366;20.400;2023-04-25T01:07:18;20.90;;;15.88;;
55672;SDS011;41554;45.366;20.400;2023-04-25T01:09:45;18.50;;;15.82;;
55672;SDS011;41554;45.366;20.400;2023-04-25T01:12:12;28.05;;;16.52;;
55672;SDS011;41554;45.366;20.400;2023-04-25T01:14:39;20.08;;;15.90;;
55672;SDS011;41554;45.366;20.400;2023-04-25T01:17:05;24.30;;;17.98;;
55672;SDS011;41554;45.366;20.400;2023-04-25T01:19:32;19.98;;;17.40;;
55672;SDS011;41554;45.366;20.400;2023-04-25T01:21:58;21.92;;;16.73;;
55672;SDS011;41554;45.366;20.400;2023-04-25T01:24:25;19.50;;;14.98;;
55672;SDS011;41554;45.366;20.400;2023-04-25T01:26:51;22.42;;;17.20;;
55672;SDS011;41554;45.366;20.400;2023-04-25T01:29:20;24.25;;;17.60;;
55672;SDS011;41554;45.366;20.400;2023-04-25T01:31:46;22.00;;;16.50;;
55672;SDS011;41554;45.366;20.400;2023-04-25T01:34:12;27.10;;;18.17;;
55672;SDS011;41554;45.366;20.400;2023-04-25T01:36:39;21.75;;;17.85;;
55672;SDS011;41554;45.366;20.400;2023-04-25T01:39:05;26.77;;;18.08;;
55672;SDS011;41554;45.366;20.400;2023-04-25T01:41:32;31.50;;;22.67;;
55672;SDS011;41554;45.366;20.400;2023-04-25T01:43:59;30.35;;;24.85;;
55672;SDS011;41554;45.366;20.400;2023-04-25T01:46:26;38.38;;;26.48;;
55672;SDS011;41554;45.366;20.400;2023-04-25T01:48:52;33.10;;;25.67;;
55672;SDS011;41554;45.366;20.400;2023-04-25T01:51:19;38.20;;;25.25;;
55672;SDS011;41554;45.366;20.400;2023-04-25T01:53:45;34.38;;;25.23;;
55672;SDS011;41554;45.366;20.400;2023-04-25T01:56:11;28.77;;;23.02;;
55672;SDS011;41554;45.366;20.400;2023-04-25T01:58:37;35.53;;;26.58;;
55672;SDS011;41554;45.366;20.400;2023-04-25T02:01:03;34.90;;;24.77;;
55672;SDS011;41554;45.366;20.400;2023-04-25T02:03:30;36.45;;;27.45;;
55672;SDS011;41554;45.366;20.400;2023-04-25T02:05:56;33.00;;;24.73;;
55672;SDS011;41554;45.366;20.400;2023-04-25T02:08:23;25.58;;;21.30;;
55672;SDS011;41554;45.366;20.400;2023-04-25T02:10:50;35.47;;;23.08;;
55672;SDS011;41554;45.366;20.400;2023-04-25T02:13:16;32.83;;;26.63;;
55672;SDS011;41554;45.366;20.400;2023-04-25T02:15:43;34.88;;;24.98;;
55672;SDS011;41554;45.366;20.400;2023-04-25T02:18:09;37.38;;;26.52;;
55672;SDS011;41554;45.366;20.400;2023-04-25T02:20:36;30.45;;;23.85;;
55672;SDS011;41554;45.366;20.400;2023-04-25T02:23:02;27.80;;;22.77;;
55672;SDS011;41554;45.366;20.400;2023-04-25T02:25:28;34.55;;;25.38;;
55672;SDS011;41554;45.366;20.400;2023-04-25T02:27:55;32.97;;;25.30;;
55672;SDS011;41554;45.366;20.400;2023-04-25T02:30:21;35.15;;;24.02;;
55672;SDS011;41554;45.366;20.400;2023-04-25T02:32:47;28.58;;;23.15;;
55672;SDS011;41554;45.366;20.400;2023-04-25T02:35:13;35.00;;;23.85;;
55672;SDS011;41554;45.366;20.400;2023-04-25T02:37:39;35.65;;;26.50;;
55672;SDS011;41554;45.366;20.400;2023-04-25T02:40:05;28.13;;;23.67;;
55672;SDS011;41554;45.366;20.400;2023-04-25T02:42:31;31.85;;;20.98;;
55672;SDS011;41554;45.366;20.400;2023-04-25T02:44:57;31.67;;;23.02;;
55672;SDS011;41554;45.366;20.400;2023-04-25T02:47:23;28.25;;;20.95;;
55672;SDS011;41554;45.366;20.400;2023-04-25T02:49:50;29.80;;;21.70;;
55672;SDS011;41554;45.366;20.400;2023-04-25T02:52:16;28.08;;;21.65;;
55672;SDS011;41554;45.366;20.400;2023-04-25T02:54:42;27.98;;;20.52;;
55672;SDS011;41554;45.366;20.400;2023-04-25T02:57:08;37.08;;;22.83;;
55672;SDS011;41554;45.366;20.400;2023-04-25T02:59:34;32.20;;;24.05;;
55672;SDS011;41554;45.366;20.400;2023-04-25T03:02:00;30.08;;;23.95;;
55672;SDS011;41554;45.366;20.400;2023-04-25T03:04:26;33.78;;;23.52;;
55672;SDS011;41554;45.366;20.400;2023-04-25T03:06:53;29.60;;;22.60;;
55672;SDS011;41554;45.366;20.400;2023-04-25T03:09:19;27.65;;;22.15;;
55672;SDS011;41554;45.366;20.400;2023-04-25T03:11:45;29.85;;;21.30;;
55672;SDS011;41554;45.366;20.400;2023-04-25T03:14:11;25.23;;;19.58;;
55672;SDS011;41554;45.366;20.400;2023-04-25T03:16:38;30.25;;;21.08;;
55672;SDS011;41554;45.366;20.400;2023-04-25T03:19:04;30.80;;;19.70;;
55672;SDS011;41554;45.366;20.400;2023-04-25T03:21:31;23.60;;;19.10;;
55672;SDS011;41554;45.366;20.400;2023-04-25T03:23:57;25.80;;;19.52;;
55672;SDS011;41554;45.366;20.400;2023-04-25T03:26:23;24.45;;;19.25;;
55672;SDS011;41554;45.366;20.400;2023-04-25T03:28:49;22.20;;;18.65;;
55672;SDS011;41554;45.366;20.400;2023-04-25T03:31:16;22.88;;;17.52;;
55672;SDS011;41554;45.366;20.400;2023-04-25T03:33:42;30.58;;;19.98;;
55672;SDS011;41554;45.366;20.400;2023-04-25T03:36:08;28.80;;;21.08;;
55672;SDS011;41554;45.366;20.400;2023-04-25T03:38:35;24.17;;;19.40;;
55672;SDS011;41554;45.366;20.400;2023-04-25T03:41:01;21.65;;;16.08;;
55672;SDS011;41554;45.366;20.400;2023-04-25T03:43:27;25.77;;;18.35;;
55672;SDS011;41554;45.366;20.400;2023-04-25T03:45:53;21.98;;;17.38;;
55672;SDS011;41554;45.366;20.400;2023-04-25T03:48:19;24.73;;;18.42;;
55672;SDS011;41554;45.366;20.400;2023-04-25T03:50:50;21.33;;;16.35;;
55672;SDS011;41554;45.366;20.400;2023-04-25T03:53:17;23.13;;;17.00;;
55672;SDS011;41554;45.366;20.400;2023-04-25T03:55:43;18.50;;;14.63;;
55672;SDS011;41554;45.366;20.400;2023-04-25T03:58:09;18.13;;;14.82;;
55672;SDS011;41554;45.366;20.400;2023-04-25T04:00:35;24.55;;;14.45;;
55672;SDS011;41554;45.366;20.400;2023-04-25T04:03:01;14.45;;;11.82;;
55672;SDS011;41554;45.366;20.400;2023-04-25T04:05:27;16.83;;;12.20;;
55672;SDS011;41554;45.366;20.400;2023-04-25T04:07:54;10.77;;;8.70;;
55672;SDS011;41554;45.366;20.400;2023-04-25T04:10:20;10.57;;;7.97;;
55672;SDS011;41554;45.366;20.400;2023-04-25T04:12:46;13.20;;;8.63;;
55672;SDS011;41554;45.366;20.400;2023-04-25T04:15:12;10.75;;;7.85;;
55672;SDS011;41554;45.366;20.400;2023-04-25T04:17:38;8.40;;;7.57;;
55672;SDS011;41554;45.366;20.400;2023-04-25T04:20:05;8.50;;;7.53;;
55672;SDS011;41554;45.366;20.400;2023-04-25T04:22:32;10.60;;;8.07;;
55672;SDS011;41554;45.366;20.400;2023-04-25T04:24:58;10.48;;;7.63;;
55672;SDS011;41554;45.366;20.400;2023-04-25T04:27:24;8.07;;;6.38;;
55672;SDS011;41554;45.366;20.400;2023-04-25T04:29:51;14.80;;;8.20;;
55672;SDS011;41554;45.366;20.400;2023-04-25T04:32:18;9.63;;;7.55;;
55672;SDS011;41554;45.366;20.400;2023-04-25T04:34:44;8.30;;;6.57;;
55672;SDS011;41554;45.366;20.400;2023-04-25T04:37:12;9.48;;;7.72;;
55672;SDS011;41554;45.366;20.400;2023-04-25T04:39:38;9.52;;;6.75;;
55672;SDS011;41554;45.366;20.400;2023-04-25T04:42:04;11.35;;;7.30;;
55672;SDS011;41554;45.366;20.400;2023-04-25T04:44:30;8.07;;;5.57;;
55672;SDS011;41554;45.366;20.400;2023-04-25T04:47:00;8.48;;;5.47;;
55672;SDS011;41554;45.366;20.400;2023-04-25T04:49:26;7.28;;;5.53;;
55672;SDS011;41554;45.366;20.400;2023-04-25T04:51:52;7.80;;;6.03;;
55672;SDS011;41554;45.366;20.400;2023-04-25T04:54:19;8.43;;;6.63;;
55672;SDS011;41554;45.366;20.400;2023-04-25T04:56:45;7.13;;;5.75;;
55672;SDS011;41554;45.366;20.400;2023-04-25T04:59:11;9.30;;;6.13;;
55672;SDS011;41554;45.366;20.400;2023-04-25T05:01:38;7.00;;;5.30;;
55672;SDS011;41554;45.366;20.400;2023-04-25T05:04:04;7.18;;;6.18;;
55672;SDS011;41554;45.366;20.400;2023-04-25T05:06:31;6.88;;;5.65;;
55672;SDS011;41554;45.366;20.400;2023-04-25T05:08:57;7.03;;;4.60;;
55672;SDS011;41554;45.366;20.400;2023-04-25T05:11:24;6.88;;;5.45;;
55672;SDS011;41554;45.366;20.400;2023-04-25T05:13:53;7.97;;;6.35;;
55672;SDS011;41554;45.366;20.400;2023-04-25T05:16:19;5.10;;;4.47;;
55672;SDS011;41554;45.366;20.400;2023-04-25T05:18:46;7.47;;;5.55;;
55672;SDS011;41554;45.366;20.400;2023-04-25T05:21:12;8.90;;;5.63;;
55672;SDS011;41554;45.366;20.400;2023-04-25T05:23:38;7.07;;;5.90;;
55672;SDS011;41554;45.366;20.400;2023-04-25T05:26:04;6.50;;;5.55;;
55672;SDS011;41554;45.366;20.400;2023-04-25T05:28:30;7.72;;;5.65;;
55672;SDS011;41554;45.366;20.400;2023-04-25T05:30:56;7.00;;;4.95;;
55672;SDS011;41554;45.366;20.400;2023-04-25T05:33:22;8.85;;;6.30;;
55672;SDS011;41554;45.366;20.400;2023-04-25T05:35:49;5.57;;;4.13;;
55672;SDS011;41554;45.366;20.400;2023-04-25T05:38:15;9.90;;;4.18;;
55672;SDS011;41554;45.366;20.400;2023-04-25T05:40:41;5.47;;;4.03;;
55672;SDS011;41554;45.366;20.400;2023-04-25T05:43:07;7.97;;;5.50;;
55672;SDS011;41554;45.366;20.400;2023-04-25T05:45:33;9.45;;;5.30;;
55672;SDS011;41554;45.366;20.400;2023-04-25T05:47:59;5.18;;;4.05;;
55672;SDS011;41554;45.366;20.400;2023-04-25T05:50:25;6.55;;;4.95;;
55672;SDS011;41554;45.366;20.400;2023-04-25T05:52:51;5.72;;;4.55;;
55672;SDS011;41554;45.366;20.400;2023-04-25T05:55:17;6.47;;;5.40;;
55672;SDS011;41554;45.366;20.400;2023-04-25T05:57:43;8.52;;;4.55;;
55672;SDS011;41554;45.366;20.400;2023-04-25T06:00:11;6.15;;;4.88;;
55672;SDS011;41554;45.366;20.400;2023-04-25T06:02:37;5.40;;;4.35;;
55672;SDS011;41554;45.366;20.400;2023-04-25T06:05:03;6.15;;;4.55;;
55672;SDS011;41554;45.366;20.400;2023-04-25T06:07:30;13.23;;;6.20;;
55672;SDS011;41554;45.366;20.400;2023-04-25T06:09:56;10.90;;;4.45;;
55672;SDS011;41554;45.366;20.400;2023-04-25T06:12:22;7.57;;;4.47;;
55672;SDS011;41554;45.366;20.400;2023-04-25T06:14:48;9.63;;;5.72;;
55672;SDS011;41554;45.366;20.400;2023-04-25T06:17:14;6.00;;;3.92;;
55672;SDS011;41554;45.366;20.400;2023-04-25T06:19:40;6.80;;;4.88;;
55672;SDS011;41554;45.366;20.400;2023-04-25T06:22:07;12.07;;;6.13;;
55672;SDS011;41554;45.366;20.400;2023-04-25T06:24:33;5.15;;;3.92;;
55672;SDS011;41554;45.366;20.400;2023-04-25T06:27:00;5.68;;;4.30;;
55672;SDS011;41554;45.366;20.400;2023-04-25T06:29:26;4.85;;;4.00;;
55672;SDS011;41554;45.366;20.400;2023-04-25T06:31:52;10.02;;;4.45;;
55672;SDS011;41554;45.366;20.400;2023-04-25T06:34:18;8.52;;;4.15;;
55672;SDS011;41554;45.366;20.400;2023-04-25T06:36:44;9.95;;;3.70;;
55672;SDS011;41554;45.366;20.400;2023-04-25T06:39:11;5.95;;;4.07;;
55672;SDS011;41554;45.366;20.400;2023-04-25T06:41:37;8.40;;;4.55;;
55672;SDS011;41554;45.366;20.400;2023-04-25T06:44:04;5.80;;;4.50;;
55672;SDS011;41554;45.366;20.400;2023-04-25T06:46:30;6.40;;;4.25;;
55672;SDS011;41554;45.366;20.400;2023-04-25T06:48:56;6.93;;;4.45;;
55672;SDS011;41554;45.366;20.400;2023-04-25T06:51:22;7.95;;;4.88;;
55672;SDS011;41554;45.366;20.400;2023-04-25T06:53:49;6.22;;;3.88;;
55672;SDS011;41554;45.366;20.400;2023-04-25T06:56:15;4.18;;;3.33;;
55672;SDS011;41554;45.366;20.400;2023-04-25T06:58:41;5.95;;;3.80;;
55672;SDS011;41554;45.366;20.400;2023-04-25T07:01:07;7.55;;;4.90;;
55672;SDS011;41554;45.366;20.400;2023-04-25T07:03:33;4.32;;;3.38;;
55672;SDS011;41554;45.366;20.400;2023-04-25T07:05:59;4.70;;;3.70;;
55672;SDS011;41554;45.366;20.400;2023-04-25T07:08:25;13.13;;;4.80;;
55672;SDS011;41554;45.366;20.400;2023-04-25T07:10:51;11.88;;;5.05;;
55672;SDS011;41554;45.366;20.400;2023-04-25T07:13:17;7.93;;;5.85;;
55672;SDS011;41554;45.366;20.400;2023-04-25T07:15:43;7.22;;;4.78;;
55672;SDS011;41554;45.366;20.400;2023-04-25T07:18:09;12.10;;;6.75;;
55672;SDS011;41554;45.366;20.400;2023-04-25T07:20:36;5.65;;;4.72;;
55672;SDS011;41554;45.366;20.400;2023-04-25T07:23:02;6.75;;;5.22;;
55672;SDS011;41554;45.366;20.400;2023-04-25T07:25:28;7.10;;;4.82;;
55672;SDS011;41554;45.366;20.400;2023-04-25T07:27:55;4.78;;;3.92;;
55672;SDS011;41554;45.366;20.400;2023-04-25T07:30:21;7.38;;;4.97;;
55672;SDS011;41554;45.366;20.400;2023-04-25T07:32:47;10.68;;;5.82;;
55672;SDS011;41554;45.366;20.400;2023-04-25T07:35:15;12.93;;;4.78;;
55672;SDS011;41554;45.366;20.400;2023-04-25T07:37:42;11.35;;;3.55;;
55672;SDS011;41554;45.366;20.400;2023-04-25T07:40:08;6.80;;;3.97;;
55672;SDS011;41554;45.366;20.400;2023-04-25T07:42:34;5.07;;;3.72;;
55672;SDS011;41554;45.366;20.400;2023-04-25T07:45:01;6.85;;;4.80;;
55672;SDS011;41554;45.366;20.400;2023-04-25T07:47:28;5.80;;;4.60;;
55672;SDS011;41554;45.366;20.400;2023-04-25T07:49:54;4.72;;;4.00;;
55672;SDS011;41554;45.366;20.400;2023-04-25T07:52:21;8.15;;;4.40;;
55672;SDS011;41554;45.366;20.400;2023-04-25T07:54:47;6.82;;;4.93;;
55672;SDS011;41554;45.366;20.400;2023-04-25T07:57:13;6.70;;;4.65;;
55672;SDS011;41554;45.366;20.400;2023-04-25T07:59:39;7.55;;;4.03;;
55672;SDS011;41554;45.366;20.400;2023-04-25T08:02:05;5.85;;;4.90;;
55672;SDS011;41554;45.366;20.400;2023-04-25T08:04:31;8.13;;;6.35;;
55672;SDS011;41554;45.366;20.400;2023-04-25T08:06:57;6.75;;;4.05;;
55672;SDS011;41554;45.366;20.400;2023-04-25T08:09:24;7.35;;;5.05;;
55672;SDS011;41554;45.366;20.400;2023-04-25T08:11:50;9.10;;;4.45;;
55672;SDS011;41554;45.366;20.400;2023-04-25T08:14:16;6.40;;;4.78;;
55672;SDS011;41554;45.366;20.400;2023-04-25T08:16:42;4.18;;;3.08;;
55672;SDS011;41554;45.366;20.400;2023-04-25T08:19:08;6.45;;;4.55;;
55672;SDS011;41554;45.366;20.400;2023-04-25T08:21:34;10.77;;;9.68;;
55672;SDS011;41554;45.366;20.400;2023-04-25T08:24:00;8.38;;;6.10;;
55672;SDS011;41554;45.366;20.400;2023-04-25T08:26:26;8.05;;;5.75;;
55672;SDS011;41554;45.366;20.400;2023-04-25T08:28:52;8.65;;;6.65;;
55672;SDS011;41554;45.366;20.400;2023-04-25T08:31:18;6.65;;;4.68;;
55672;SDS011;41554;45.366;20.400;2023-04-25T08:33:44;6.90;;;5.28;;
55672;SDS011;41554;45.366;20.400;2023-04-25T08:36:10;5.13;;;3.65;;
55672;SDS011;41554;45.366;20.400;2023-04-25T08:38:36;7.22;;;5.50;;
55672;SDS011;41554;45.366;20.400;2023-04-25T08:41:02;5.53;;;4.07;;
55672;SDS011;41554;45.366;20.400;2023-04-25T08:43:29;5.30;;;4.60;;
55672;SDS011;41554;45.366;20.400;2023-04-25T08:45:59;6.53;;;5.28;;
55672;SDS011;41554;45.366;20.400;2023-04-25T08:48:26;8.13;;;5.18;;
55672;SDS011;41554;45.366;20.400;2023-04-25T08:50:56;6.07;;;4.50;;
55672;SDS011;41554;45.366;20.400;2023-04-25T08:53:27;6.30;;;4.80;;
55672;SDS011;41554;45.366;20.400;2023-04-25T08:55:54;6.60;;;4.35;;
55672;SDS011;41554;45.366;20.400;2023-04-25T08:58:21;5.28;;;4.40;;
55672;SDS011;41554;45.366;20.400;2023-04-25T09:00:48;8.35;;;5.28;;
55672;SDS011;41554;45.366;20.400;2023-04-25T09:03:14;4.97;;;3.83;;
55672;SDS011;41554;45.366;20.400;2023-04-25T09:05:41;4.90;;;3.95;;
55672;SDS011;41554;45.366;20.400;2023-04-25T09:08:07;9.90;;;5.28;;
55672;SDS011;41554;45.366;20.400;2023-04-25T09:10:33;7.93;;;4.07;;
55672;SDS011;41554;45.366;20.400;2023-04-25T09:13:03;6.70;;;4.32;;
55672;SDS011;41554;45.366;20.400;2023-04-25T09:17:56;11.48;;;5.70;;
55672;SDS011;41554;45.366;20.400;2023-04-25T09:20:22;5.63;;;3.88;;
55672;SDS011;41554;45.366;20.400;2023-04-25T09:22:49;6.90;;;3.78;;
55672;SDS011;41554;45.366;20.400;2023-04-25T09:25:27;7.97;;;6.63;;
55672;SDS011;41554;45.366;20.400;2023-04-25T09:28:00;6.22;;;4.72;;
55672;SDS011;41554;45.366;20.400;2023-04-25T09:30:29;6.82;;;4.90;;
55672;SDS011;41554;45.366;20.400;2023-04-25T09:32:56;7.97;;;5.25;;
55672;SDS011;41554;45.366;20.400;2023-04-25T09:35:24;6.75;;;5.90;;
55672;SDS011;41554;45.366;20.400;2023-04-25T09:37:51;7.03;;;5.20;;
55672;SDS011;41554;45.366;20.400;2023-04-25T09:40:17;5.35;;;4.15;;
55672;SDS011;41554;45.366;20.400;2023-04-25T09:42:43;8.23;;;4.32;;
55672;SDS011;41554;45.366;20.400;2023-04-25T09:45:09;6.30;;;3.88;;
55672;SDS011;41554;45.366;20.400;2023-04-25T09:50:13;6.22;;;4.15;;
55672;SDS011;41554;45.366;20.400;2023-04-25T09:52:40;8.32;;;4.80;;
55672;SDS011;41554;45.366;20.400;2023-04-25T09:55:06;5.65;;;3.90;;
55672;SDS011;41554;45.366;20.400;2023-04-25T09:57:32;6.63;;;2.88;;
55672;SDS011;41554;45.366;20.400;2023-04-25T09:59:59;6.78;;;4.55;;
55672;SDS011;41554;45.366;20.400;2023-04-25T10:02:26;9.00;;;6.45;;
55672;SDS011;41554;45.366;20.400;2023-04-25T10:04:53;8.45;;;5.43;;
55672;SDS011;41554;45.366;20.400;2023-04-25T10:07:22;14.68;;;8.48;;
55672;SDS011;41554;45.366;20.400;2023-04-25T10:09:52;7.90;;;5.65;;
55672;SDS011;41554;45.366;20.400;2023-04-25T10:12:21;9.68;;;5.88;;
55672;SDS011;41554;45.366;20.400;2023-04-25T10:14:47;4.28;;;3.70;;
55672;SDS011;41554;45.366;20.400;2023-04-25T10:17:13;5.32;;;3.92;;
55672;SDS011;41554;45.366;20.400;2023-04-25T10:19:40;5.05;;;3.55;;
55672;SDS011;41554;45.366;20.400;2023-04-25T10:24:32;8.25;;;4.05;;
55672;SDS011;41554;45.366;20.400;2023-04-25T10:26:59;4.50;;;3.38;;
55672;SDS011;41554;45.366;20.400;2023-04-25T10:29:26;9.40;;;3.33;;
55672;SDS011;41554;45.366;20.400;2023-04-25T10:31:53;9.90;;;6.15;;
55672;SDS011;41554;45.366;20.400;2023-04-25T10:34:19;10.57;;;5.72;;
55672;SDS011;41554;45.366;20.400;2023-04-25T10:36:50;3.25;;;2.38;;
55672;SDS011;41554;45.366;20.400;2023-04-25T10:39:23;3.35;;;2.47;;
55672;SDS011;41554;45.366;20.400;2023-04-25T10:41:55;6.13;;;3.25;;
55672;SDS011;41554;45.366;20.400;2023-04-25T10:44:21;4.38;;;3.65;;
55672;SDS011;41554;45.366;20.400;2023-04-25T10:46:47;6.55;;;3.35;;
55672;SDS011;41554;45.366;20.400;2023-04-25T10:49:46;3.35;;;2.03;;
55672;SDS011;41554;45.366;20.400;2023-04-25T10:54:47;10.65;;;2.90;;
55672;SDS011;41554;45.366;20.400;2023-04-25T10:57:26;6.25;;;3.95;;
55672;SDS011;41554;45.366;20.400;2023-04-25T10:59:53;4.13;;;3.10;;
55672;SDS011;41554;45.366;20.400;2023-04-25T11:02:19;7.55;;;3.92;;
55672;SDS011;41554;45.366;20.400;2023-04-25T11:04:45;18.98;;;9.95;;
55672;SDS011;41554;45.366;20.400;2023-04-25T11:07:26;4.88;;;3.03;;
55672;SDS011;41554;45.366;20.400;2023-04-25T11:09:55;3.78;;;3.13;;
55672;SDS011;41554;45.366;20.400;2023-04-25T11:12:21;10.80;;;5.53;;
55672;SDS011;41554;45.366;20.400;2023-04-25T11:14:50;6.03;;;4.00;;
55672;SDS011;41554;45.366;20.400;2023-04-25T11:17:16;4.22;;;3.20;;
55672;SDS011;41554;45.366;20.400;2023-04-25T11:19:42;4.07;;;2.75;;
55672;SDS011;41554;45.366;20.400;2023-04-25T11:22:09;4.85;;;3.50;;
55672;SDS011;41554;45.366;20.400;2023-04-25T11:24:36;4.25;;;3.13;;
55672;SDS011;41554;45.366;20.400;2023-04-25T11:27:02;4.32;;;3.03;;
55672;SDS011;41554;45.366;20.400;2023-04-25T11:29:29;6.03;;;3.75;;
55672;SDS011;41554;45.366;20.400;2023-04-25T11:31:56;5.82;;;3.58;;
55672;SDS011;41554;45.366;20.400;2023-04-25T11:34:23;8.60;;;4.50;;
55672;SDS011;41554;45.366;20.400;2023-04-25T11:36:50;6.45;;;2.83;;
55672;SDS011;41554;45.366;20.400;2023-04-25T11:39:18;5.07;;;3.40;;
55672;SDS011;41554;45.366;20.400;2023-04-25T11:41:44;3.90;;;3.05;;
55672;SDS011;41554;45.366;20.400;2023-04-25T11:44:10;4.38;;;3.38;;
55672;SDS011;41554;45.366;20.400;2023-04-25T11:46:36;5.47;;;3.80;;
55672;SDS011;41554;45.366;20.400;2023-04-25T11:49:02;4.32;;;3.35;;
55672;SDS011;41554;45.366;20.400;2023-04-25T11:51:29;3.83;;;3.38;;
55672;SDS011;41554;45.366;20.400;2023-04-25T11:53:56;5.38;;;3.53;;
55672;SDS011;41554;45.366;20.400;2023-04-25T11:56:22;4.10;;;2.95;;
55672;SDS011;41554;45.366;20.400;2023-04-25T11:58:58;3.53;;;2.78;;
55672;SDS011;41554;45.366;20.400;2023-04-25T12:01:29;5.15;;;3.30;;
55672;SDS011;41554;45.366;20.400;2023-04-25T12:03:55;4.95;;;3.17;;
55672;SDS011;41554;45.366;20.400;2023-04-25T12:06:25;3.60;;;2.55;;
55672;SDS011;41554;45.366;20.400;2023-04-25T12:11:21;8.32;;;4.88;;
55672;SDS011;41554;45.366;20.400;2023-04-25T12:13:51;4.32;;;3.60;;
55672;SDS011;41554;45.366;20.400;2023-04-25T12:16:18;6.28;;;3.97;;
55672;SDS011;41554;45.366;20.400;2023-04-25T12:18:44;4.40;;;3.65;;
55672;SDS011;41554;45.366;20.400;2023-04-25T12:21:10;8.75;;;4.80;;
55672;SDS011;41554;45.366;20.400;2023-04-25T12:23:38;6.35;;;4.88;;
55672;SDS011;41554;45.366;20.400;2023-04-25T12:26:04;5.43;;;3.97;;
55672;SDS011;41554;45.366;20.400;2023-04-25T12:28:31;8.90;;;5.75;;
55672;SDS011;41554;45.366;20.400;2023-04-25T12:31:04;6.45;;;4.38;;
55672;SDS011;41554;45.366;20.400;2023-04-25T12:33:34;4.53;;;3.33;;
55672;SDS011;41554;45.366;20.400;2023-04-25T12:38:35;4.45;;;3.17;;
55672;SDS011;41554;45.366;20.400;2023-04-25T12:41:01;10.02;;;4.45;;
55672;SDS011;41554;45.366;20.400;2023-04-25T12:43:27;6.72;;;4.78;;
55672;SDS011;41554;45.366;20.400;2023-04-25T12:45:54;5.65;;;4.10;;
55672;SDS011;41554;45.366;20.400;2023-04-25T12:48:20;4.07;;;2.95;;
55672;SDS011;41554;45.366;20.400;2023-04-25T12:50:47;7.20;;;4.80;;
55672;SDS011;41554;45.366;20.400;2023-04-25T12:53:17;5.63;;;3.80;;
55672;SDS011;41554;45.366;20.400;2023-04-25T12:55:43;4.38;;;2.90;;
55672;SDS011;41554;45.366;20.400;2023-04-25T12:58:16;5.43;;;3.20;;
55672;SDS011;41554;45.366;20.400;2023-04-25T13:00:43;5.95;;;3.20;;
55672;SDS011;41554;45.366;20.400;2023-04-25T13:03:09;4.68;;;3.55;;
55672;SDS011;41554;45.366;20.400;2023-04-25T13:05:36;3.13;;;2.83;;
55672;SDS011;41554;45.366;20.400;2023-04-25T13:08:02;6.03;;;2.20;;
55672;SDS011;41554;45.366;20.400;2023-04-25T13:10:29;11.55;;;2.47;;
55672;SDS011;41554;45.366;20.400;2023-04-25T13:12:55;20.88;;;5.55;;
55672;SDS011;41554;45.366;20.400;2023-04-25T13:15:21;10.27;;;4.60;;
55672;SDS011;41554;45.366;20.400;2023-04-25T13:17:48;11.80;;;5.88;;
55672;SDS011;41554;45.366;20.400;2023-04-25T13:20:14;9.18;;;3.88;;
55672;SDS011;41554;45.366;20.400;2023-04-25T13:22:40;2.90;;;2.28;;
55672;SDS011;41554;45.366;20.400;2023-04-25T13:25:07;4.88;;;2.63;;
55672;SDS011;41554;45.366;20.400;2023-04-25T13:27:34;8.25;;;3.42;;
55672;SDS011;41554;45.366;20.400;2023-04-25T13:30:01;4.03;;;2.97;;
55672;SDS011;41554;45.366;20.400;2023-04-25T13:32:31;5.45;;;3.45;;
55672;SDS011;41554;45.366;20.400;2023-04-25T13:34:57;6.47;;;3.75;;
55672;SDS011;41554;45.366;20.400;2023-04-25T13:37:23;5.32;;;3.35;;
55672;SDS011;41554;45.366;20.400;2023-04-25T13:39:50;4.18;;;2.88;;
55672;SDS011;41554;45.366;20.400;2023-04-25T13:42:16;3.83;;;2.83;;
55672;SDS011;41554;45.366;20.400;2023-04-25T13:44:42;3.13;;;2.83;;
55672;SDS011;41554;45.366;20.400;2023-04-25T13:47:08;4.47;;;3.58;;
55672;SDS011;41554;45.366;20.400;2023-04-25T13:49:34;3.78;;;2.67;;
55672;SDS011;41554;45.366;20.400;2023-04-25T13:52:00;4.22;;;3.13;;
55672;SDS011;41554;45.366;20.400;2023-04-25T13:54:26;4.40;;;3.17;;
55672;SDS011;41554;45.366;20.400;2023-04-25T13:56:52;4.95;;;3.28;;
55672;SDS011;41554;45.366;20.400;2023-04-25T13:59:23;4.43;;;3.10;;
55672;SDS011;41554;45.366;20.400;2023-04-25T14:01:50;7.38;;;4.22;;
55672;SDS011;41554;45.366;20.400;2023-04-25T14:04:16;11.70;;;3.83;;
55672;SDS011;41554;45.366;20.400;2023-04-25T14:06:42;5.47;;;4.15;;
55672;SDS011;41554;45.366;20.400;2023-04-25T14:09:08;5.78;;;3.65;;
55672;SDS011;41554;45.366;20.400;2023-04-25T14:11:38;5.55;;;3.90;;
55672;SDS011;41554;45.366;20.400;2023-04-25T14:14:04;3.80;;;3.00;;
55672;SDS011;41554;45.366;20.400;2023-04-25T14:16:30;4.80;;;3.78;;
55672;SDS011;41554;45.366;20.400;2023-04-25T14:19:00;7.25;;;2.58;;
55672;SDS011;41554;45.366;20.400;2023-04-25T14:21:26;5.45;;;3.35;;
55672;SDS011;41554;45.366;20.400;2023-04-25T14:23:53;6.28;;;3.20;;
55672;SDS011;41554;45.366;20.400;2023-04-25T14:26:19;5.70;;;4.00;;
55672;SDS011;41554;45.366;20.400;2023-04-25T14:28:45;10.25;;;3.78;;
55672;SDS011;41554;45.366;20.400;2023-04-25T14:31:11;4.25;;;3.42;;
55672;SDS011;41554;45.366;20.400;2023-04-25T14:33:37;5.88;;;3.72;;
55672;SDS011;41554;45.366;20.400;2023-04-25T14:36:07;4.97;;;3.23;;
55672;SDS011;41554;45.366;20.400;2023-04-25T14:38:33;7.63;;;4.43;;